Norasia Integra — A8DZ2 — position and weather

sailwx.info

Track history (hours):
 
Tides and Currents Weather Stations Pressure Air Temp Water Temp Dewpoint Dewpoint Depression Visibility Wind Speed Wind Dir Waves Ship Positions

Norasia Integra

Last reported at 2018-Jan-11 06:39 UTC. Time now 2018-Jan-21 20:23 UTC.
Position N 22°09' E 120°13'.
Warning: this ship's position is 10 days out of date.

Length 222 m; draft 12.2 m.

Type: Ship. MMSI: 636013289.

Date/timePositionNaut miles runAvg speedWind from/ knotsBaromVisibWave heightAir tempDewpointWater temp
2018-Jan-11 06:39N 22°09' E 120°13'320.2
2018-Jan-11 06:30N 22°12' E 120°13'1019.4
2018-Jan-11 06:00N 22°21' E 120°12'816.7
2018-Jan-11 05:30N 22°30' E 120°13'611.8
2018-Jan-11 05:01N 22°33' E 120°18'1 2.8
2018-Jan-11 04:30N 22°33' E 120°19'0 0.0
2018-Jan-11 04:00N 22°33' E 120°19'0 0.0
2018-Jan-11 03:30N 22°33' E 120°19'0 0.0
2018-Jan-11 03:00N 22°33' E 120°19'0 0.0
2018-Jan-11 02:30N 22°33' E 120°19'0 0.0
2018-Jan-11 02:01N 22°33' E 120°19'0 0.0
2018-Jan-11 01:30N 22°33' E 120°19'0 0.0
2018-Jan-11 01:01N 22°33' E 120°19'0 0.0
2018-Jan-11 00:30N 22°33' E 120°19'0 0.0
2018-Jan-11 00:01N 22°33' E 120°19'0 0.0
2018-Jan-10 23:30N 22°33' E 120°19'0 0.1
2018-Jan-10 23:00N 22°33' E 120°19'0 0.1
2018-Jan-10 22:30N 22°33' E 120°19'0 0.0
2018-Jan-10 22:00N 22°33' E 120°19'0 0.0
2018-Jan-10 21:30N 22°33' E 120°19'0 0.0
2018-Jan-10 21:00N 22°33' E 120°19'0 0.0
2018-Jan-10 20:30N 22°33' E 120°19'0 0.0
2018-Jan-10 20:00N 22°33' E 120°19'0 0.0
2018-Jan-10 19:30N 22°33' E 120°19'1 1.4
2018-Jan-10 19:00N 22°34' E 120°19'1 1.6
2018-Jan-10 18:30N 22°34' E 120°19'0 0.0
2018-Jan-10 18:00N 22°34' E 120°19'0 0.0
2018-Jan-10 17:30N 22°34' E 120°19'0 0.0
2018-Jan-10 17:00N 22°34' E 120°19'0 0.0
2018-Jan-10 16:30N 22°34' E 120°19'0 0.0
2018-Jan-10 16:00N 22°34' E 120°19'0 0.0
2018-Jan-10 15:30N 22°34' E 120°19'0 0.0
2018-Jan-10 15:00N 22°34' E 120°19'0 0.0
2018-Jan-10 14:31N 22°34' E 120°19'0 0.0
2018-Jan-10 14:00N 22°34' E 120°19'0 0.0
2018-Jan-10 13:30N 22°34' E 120°19'0 0.0
2018-Jan-10 13:00N 22°34' E 120°19'0 0.0
2018-Jan-10 12:30N 22°34' E 120°19'0 0.0
2018-Jan-10 12:00N 22°34' E 120°19'0 0.0
2018-Jan-10 11:31N 22°34' E 120°19'0 0.0
2018-Jan-10 11:01N 22°34' E 120°19'1 1.2
2018-Jan-10 10:30N 22°34' E 120°19'0 0.7
2018-Jan-10 10:01N 22°34' E 120°19'0 0.0
2018-Jan-10 09:30N 22°34' E 120°19'0 0.0
2018-Jan-10 09:00N 22°34' E 120°19'0 0.0
2018-Jan-10 08:30N 22°34' E 120°19'0 0.0
2018-Jan-10 08:00N 22°34' E 120°19'0 0.0
2018-Jan-10 07:30N 22°34' E 120°19'0 0.0
2018-Jan-10 07:01N 22°34' E 120°19'0 0.0
2018-Jan-10 06:31N 22°34' E 120°19'0 0.0
2018-Jan-10 06:00N 22°34' E 120°19'0 0.0
2018-Jan-10 05:30N 22°34' E 120°19'0 0.0
2018-Jan-10 05:00N 22°34' E 120°19'0 0.0
2018-Jan-10 04:30N 22°34' E 120°19'0 0.0
2018-Jan-10 04:01N 22°34' E 120°19'0 0.0
2018-Jan-10 03:30N 22°34' E 120°19'0 0.0
2018-Jan-10 03:01N 22°34' E 120°19'0 0.0
2018-Jan-10 02:31N 22°34' E 120°19'0 0.0
2018-Jan-10 02:00N 22°34' E 120°19'1 1.9
2018-Jan-10 01:30N 22°33' E 120°18'3 5.7
2018-Jan-10 01:00N 22°32' E 120°15'1 2.8
2018-Jan-10 00:30N 22°32' E 120°14'3 5.5
2018-Jan-10 00:00N 22°30' E 120°12'3 5.1
2018-Jan-09 23:30N 22°28' E 120°10'1 2.4
2018-Jan-09 23:00N 22°28' E 120°09'1 2.4
2018-Jan-09 22:30N 22°27' E 120°08'1 2.7
2018-Jan-09 22:01N 22°28' E 120°09'3 5.3
2018-Jan-09 21:30N 22°31' E 120°09'3 5.0
2018-Jan-09 21:01N 22°31' E 120°06'4 8.1
2018-Jan-09 20:30N 22°30' E 120°02'4 7.7
2018-Jan-09 20:00N 22°29' E 119°58'2 5.0
2018-Jan-09 19:31N 22°29' E 119°55'1 2.5
2018-Jan-09 19:00N 22°30' E 119°56'1 1.9
2018-Jan-09 18:30N 22°30' E 119°57'1 2.5
2018-Jan-09 18:00N 22°31' E 119°58'0 0.6
2018-Jan-09 17:31N 22°31' E 119°58'4 8.5
2018-Jan-09 17:00N 22°31' E 119°53'5 9.0
2018-Jan-09 16:30N 22°30' E 119°49'5 9.1
2018-Jan-09 15:56N 22°30' E 119°43'5 9.5
2018-Jan-09 15:24N 22°29' E 119°38'30613.8
2018-Jan-08 17:16N 22°19' E 114°07'1 3.3
2018-Jan-08 16:52N 22°20' E 114°08'0 0.0
2018-Jan-08 15:47N 22°20' E 114°08'0 0.0
2018-Jan-08 15:28N 22°20' E 114°08'0 0.0
2018-Jan-08 14:56N 22°20' E 114°08'0 0.0
2018-Jan-08 14:27N 22°20' E 114°08'0 0.0
2018-Jan-08 14:01N 22°20' E 114°08'0 0.0
2018-Jan-08 13:30N 22°20' E 114°08'0 0.0
2018-Jan-08 13:00N 22°20' E 114°08'0 0.0
2018-Jan-08 12:09N 22°20' E 114°08'0 0.0
2018-Jan-08 11:59N 22°20' E 114°08'0 0.0
2018-Jan-08 11:24N 22°20' E 114°08'0 0.0
2018-Jan-08 11:01N 22°20' E 114°08'0 0.0
2018-Jan-08 10:28N 22°20' E 114°08'0 0.0
2018-Jan-08 10:00N 22°20' E 114°08'25014.1
2018-Jan-07 16:20N 23°51' E 118°20'719.2
2018-Jan-07 15:59N 23°55' E 118°27'19319.0
2018-Jan-07 05:50N 25°22' E 121°36'620.2
2018-Jan-07 05:30N 25°19' E 121°42'816.1
2018-Jan-07 05:01N 25°11' E 121°45'3 5.1
2018-Jan-07 04:31N 25°09' E 121°45'0 0.0
2018-Jan-07 04:00N 25°09' E 121°45'0 0.0
2018-Jan-07 03:30N 25°09' E 121°45'0 0.0
2018-Jan-07 03:00N 25°09' E 121°45'0 0.0
2018-Jan-07 02:30N 25°09' E 121°45'0 0.0
2018-Jan-07 02:01N 25°09' E 121°45'0 0.0
2018-Jan-07 01:30N 25°09' E 121°45'0 0.0
2018-Jan-07 00:31N 25°09' E 121°45'0 0.0
2018-Jan-07 00:00N 25°09' E 121°45'0 0.0
2018-Jan-06 23:31N 25°09' E 121°45'0 0.0
2018-Jan-06 23:00N 25°09' E 121°45'0 0.0
2018-Jan-06 22:30N 25°09' E 121°45'0 0.0
2018-Jan-06 22:00N 25°09' E 121°45'0 0.0
2018-Jan-06 21:31N 25°09' E 121°45'0 0.0
2018-Jan-06 21:00N 25°09' E 121°45'0 0.0
2018-Jan-06 20:30N 25°09' E 121°45'0 0.0
2018-Jan-06 20:00N 25°09' E 121°45'0 0.0
2018-Jan-06 19:30N 25°09' E 121°45'0 0.0
2018-Jan-06 19:00N 25°09' E 121°45'0 0.0
2018-Jan-06 18:30N 25°09' E 121°45'0 0.0
2018-Jan-06 18:00N 25°09' E 121°45'0 0.0
2018-Jan-06 17:30N 25°09' E 121°45'0 1.0
2018-Jan-06 17:00N 25°09' E 121°45'4 7.8
2018-Jan-06 16:31N 25°13' E 121°44'3 6.9
2018-Jan-06 16:00N 25°16' E 121°46'2 3.8
2018-Jan-06 15:31N 25°14' E 121°46'1 2.8
2018-Jan-06 15:01N 25°15' E 121°47'0 0.8
2018-Jan-06 14:30N 25°15' E 121°46'2 4.1
2018-Jan-06 14:00N 25°16' E 121°49'2 4.6
2018-Jan-06 13:30N 25°16' E 121°51'4 8.9
2018-Jan-06 13:00N 25°18' E 121°55'5 9.7
2018-Jan-06 12:30N 25°20' E 122°00'510.0
2018-Jan-06 11:59N 25°23' E 122°05'101121.2
2018-Jan-04 12:15N 34°18' E 138°34'1222.8
2018-Jan-04 11:43N 34°25' E 138°46'622.8
2018-Jan-04 11:27N 34°28' E 138°52'1123.0
2018-Jan-04 11:00N 34°35' E 139°02'1223.3
2018-Jan-04 10:30N 34°44' E 139°11'1122.3
2018-Jan-04 10:00N 34°52' E 139°20'1121.0
2018-Jan-04 09:30N 34°58' E 139°31'1019.4
2018-Jan-04 09:00N 35°03' E 139°40'816.6
2018-Jan-04 08:31N 35°11' E 139°45'611.6
2018-Jan-04 08:01N 35°16' E 139°45'713.1
2018-Jan-04 07:30N 35°22' E 139°42'510.8
2018-Jan-04 07:01N 35°28' E 139°42'0 0.9
2018-Jan-04 06:31N 35°28' E 139°42'0 0.0
2018-Jan-04 06:01N 35°28' E 139°42'0 0.0
2018-Jan-04 05:30N 35°28' E 139°42'0 0.0
2018-Jan-04 05:01N 35°28' E 139°42'0 0.0
2018-Jan-04 04:31N 35°28' E 139°42'0 0.0
2018-Jan-04 04:00N 35°28' E 139°42'0 0.0
2018-Jan-04 03:31N 35°28' E 139°42'0 0.0
2018-Jan-04 03:01N 35°28' E 139°42'0 0.0
2018-Jan-04 02:31N 35°28' E 139°42'0 0.0
2018-Jan-04 02:01N 35°28' E 139°42'0 0.0
2018-Jan-04 01:31N 35°28' E 139°42'0 0.0
2018-Jan-04 01:01N 35°28' E 139°42'0 0.0
2018-Jan-04 00:31N 35°28' E 139°42'0 0.0
2018-Jan-04 00:01N 35°28' E 139°42'0 0.0
2018-Jan-03 23:31N 35°28' E 139°42'0 0.9
2018-Jan-03 23:01N 35°28' E 139°42'2 4.8
2018-Jan-03 22:31N 35°27' E 139°45'0 0.1
2018-Jan-03 22:01N 35°27' E 139°45'0 0.0
2018-Jan-03 21:31N 35°27' E 139°45'0 0.1
2018-Jan-03 21:01N 35°27' E 139°45'0 0.0
2018-Jan-03 20:31N 35°27' E 139°45'0 0.1
2018-Jan-03 20:01N 35°27' E 139°45'0 0.0
2018-Jan-03 19:31N 35°27' E 139°45'0 0.0
2018-Jan-03 19:01N 35°27' E 139°45'0 0.0
2018-Jan-03 18:31N 35°27' E 139°45'0 0.0
2018-Jan-03 18:01N 35°27' E 139°45'0 0.0
2018-Jan-03 17:31N 35°27' E 139°45'0 0.0
2018-Jan-03 17:01N 35°27' E 139°45'0 0.0
2018-Jan-03 16:31N 35°27' E 139°45'0 0.0
2018-Jan-03 16:01N 35°27' E 139°45'0 0.0
2018-Jan-03 15:31N 35°27' E 139°45'0 0.0
2018-Jan-03 15:01N 35°27' E 139°45'0 0.0
2018-Jan-03 14:31N 35°27' E 139°45'0 0.0
2018-Jan-03 14:01N 35°27' E 139°45'0 0.0
2018-Jan-03 13:31N 35°27' E 139°45'0 0.0
2018-Jan-03 13:01N 35°27' E 139°45'0 0.0
2018-Jan-03 12:31N 35°27' E 139°45'0 0.0
2018-Jan-03 12:01N 35°27' E 139°45'0 0.1
2018-Jan-03 11:31N 35°27' E 139°45'0 0.0
2018-Jan-03 11:01N 35°27' E 139°45'0 0.0
2018-Jan-03 10:31N 35°27' E 139°45'0 0.0
2018-Jan-03 10:01N 35°27' E 139°45'0 0.0
2018-Jan-03 09:31N 35°27' E 139°45'0 0.0
2018-Jan-03 09:01N 35°27' E 139°45'0 0.0
2018-Jan-03 08:31N 35°27' E 139°45'0 0.1
2018-Jan-03 08:01N 35°27' E 139°45'0 0.0
2018-Jan-03 07:31N 35°27' E 139°45'0 0.0
2018-Jan-03 07:01N 35°27' E 139°45'0 0.0
2018-Jan-03 06:31N 35°27' E 139°45'1 2.0
2018-Jan-03 06:01N 35°26' E 139°46'713.6
2018-Jan-03 05:30N 35°30' E 139°53'714.4
2018-Jan-03 05:01N 35°34' E 140°00'5 9.4
2018-Jan-03 04:30N 35°36' E 140°06'0 0.1
2018-Jan-03 04:01N 35°36' E 140°06'0 0.0
2018-Jan-03 03:30N 35°36' E 140°06'0 0.0
2018-Jan-03 03:00N 35°36' E 140°06'0 0.0
2018-Jan-03 02:30N 35°36' E 140°06'0 0.0
2018-Jan-03 02:00N 35°36' E 140°06'0 0.0
2018-Jan-03 01:31N 35°36' E 140°06'0 0.0
2018-Jan-03 01:01N 35°36' E 140°06'0 0.0
2018-Jan-03 00:31N 35°36' E 140°06'0 0.0
2018-Jan-03 00:01N 35°36' E 140°06'0 0.0
2018-Jan-02 23:31N 35°36' E 140°06'0 0.0
2018-Jan-02 23:01N 35°36' E 140°06'0 0.0
2018-Jan-02 22:30N 35°36' E 140°06'0 0.7
2018-Jan-02 22:01N 35°36' E 140°05'5 9.5
2018-Jan-02 21:31N 35°33' E 140°00'2 4.5
2018-Jan-02 21:00N 35°33' E 139°57'0 0.0
2018-Jan-02 20:31N 35°33' E 139°57'0 0.1
2018-Jan-02 20:01N 35°33' E 139°57'0 0.0
2018-Jan-02 19:31N 35°33' E 139°57'0 0.0
2018-Jan-02 19:00N 35°33' E 139°57'0 0.0
2018-Jan-02 18:31N 35°33' E 139°57'0 0.0
2018-Jan-02 18:00N 35°33' E 139°57'0 0.0
2018-Jan-02 17:31N 35°33' E 139°57'0 0.0
2018-Jan-02 17:01N 35°33' E 139°57'0 0.0
2018-Jan-02 16:31N 35°33' E 139°57'0 0.0
2018-Jan-02 16:01N 35°33' E 139°57'0 0.0
2018-Jan-02 15:30N 35°33' E 139°57'0 0.0
2018-Jan-02 15:01N 35°33' E 139°57'0 0.1
2018-Jan-02 14:30N 35°33' E 139°57'0 0.1
2018-Jan-02 14:01N 35°33' E 139°57'0 0.0
2018-Jan-02 13:31N 35°33' E 139°57'0 0.0
2018-Jan-02 13:01N 35°33' E 139°57'0 0.0
2018-Jan-02 12:31N 35°33' E 139°57'0 0.1
2018-Jan-02 12:01N 35°33' E 139°57'0 0.0
2018-Jan-02 11:31N 35°33' E 139°57'0 0.0
2018-Jan-02 11:01N 35°33' E 139°57'0 0.0
2018-Jan-02 10:30N 35°33' E 139°57'0 0.0
2018-Jan-02 10:01N 35°33' E 139°57'0 0.0
2018-Jan-02 09:31N 35°33' E 139°57'0 0.0
2018-Jan-02 08:30N 35°33' E 139°57'0 0.0
2018-Jan-02 08:00N 35°33' E 139°57'0 0.0
2018-Jan-02 07:30N 35°33' E 139°57'0 0.0
2018-Jan-02 07:01N 35°33' E 139°57'0 0.0
2018-Jan-02 06:30N 35°33' E 139°57'0 0.0
2018-Jan-02 06:01N 35°33' E 139°57'0 0.0
2018-Jan-02 05:30N 35°33' E 139°57'0 0.0
2018-Jan-02 04:31N 35°33' E 139°57'0 0.0
2018-Jan-02 04:01N 35°33' E 139°57'0 0.0
2018-Jan-02 03:31N 35°33' E 139°57'0 0.0
2018-Jan-02 03:01N 35°33' E 139°57'0 0.0
2018-Jan-02 02:31N 35°33' E 139°57'0 0.0
2018-Jan-02 02:01N 35°33' E 139°57'0 0.0
2018-Jan-02 01:31N 35°33' E 139°57'0 0.0
2018-Jan-02 01:01N 35°33' E 139°57'0 0.0
2018-Jan-02 00:30N 35°33' E 139°57'0 0.0
2018-Jan-02 00:01N 35°33' E 139°57'0 0.0
2018-Jan-01 23:31N 35°33' E 139°57'0 0.0
2018-Jan-01 23:01N 35°33' E 139°57'0 0.0
2018-Jan-01 22:30N 35°33' E 139°57'0 0.0
2018-Jan-01 22:00N 35°33' E 139°57'0 0.0
2018-Jan-01 21:31N 35°33' E 139°57'0 0.0
2018-Jan-01 21:01N 35°33' E 139°57'0 0.0
2018-Jan-01 20:31N 35°33' E 139°57'0 0.0
2018-Jan-01 20:01N 35°33' E 139°57'0 0.0
2018-Jan-01 19:31N 35°33' E 139°57'0 0.0
2018-Jan-01 19:01N 35°33' E 139°57'0 0.0
2018-Jan-01 18:31N 35°33' E 139°57'0 0.0
2018-Jan-01 18:01N 35°33' E 139°57'0 0.0
2018-Jan-01 17:31N 35°33' E 139°57'0 0.0
2018-Jan-01 15:01N 35°33' E 139°57'0 0.0
2018-Jan-01 14:31N 35°33' E 139°57'0 0.0
2018-Jan-01 14:01N 35°33' E 139°57'0 0.0
2018-Jan-01 13:31N 35°33' E 139°57'0 0.0
2018-Jan-01 13:01N 35°33' E 139°57'0 0.0
2018-Jan-01 12:01N 35°33' E 139°57'0 0.0
2018-Jan-01 11:30N 35°33' E 139°57'0 0.0
2018-Jan-01 11:01N 35°33' E 139°57'0 0.0
2018-Jan-01 10:31N 35°33' E 139°57'0 0.0
2018-Jan-01 10:01N 35°33' E 139°57'0 0.0
2018-Jan-01 09:31N 35°33' E 139°57'0 0.0
2018-Jan-01 08:31N 35°33' E 139°57'0 0.0
2018-Jan-01 08:01N 35°33' E 139°57'0 0.0
2018-Jan-01 07:30N 35°33' E 139°57'0 0.0
2018-Jan-01 07:00N 35°33' E 139°57'  
Track history (hours):
 
Tides and Currents Weather Stations Pressure Air Temp Water Temp Dewpoint Dewpoint Depression Visibility Wind Speed Wind Dir Waves Ship Positions

Norasia Integra

Last reported at 2018-Jan-11 06:39 UTC. Time now 2018-Jan-21 20:23 UTC.
Position N 22°09' E 120°13'.
Warning: this ship's position is 10 days out of date.

Length 222 m; draft 12.2 m.

Type: Ship. MMSI: 636013289.

Date/timePositionNaut miles runAvg speedWind from/ knotsBaromVisibWave heightAir tempDewpointWater temp
2018-Jan-11 06:39N 22°09' E 120°13'320.2
2018-Jan-11 06:30N 22°12' E 120°13'1019.4
2018-Jan-11 06:00N 22°21' E 120°12'816.7
2018-Jan-11 05:30N 22°30' E 120°13'611.8
2018-Jan-11 05:01N 22°33' E 120°18'1 2.8
2018-Jan-11 04:30N 22°33' E 120°19'0 0.0
2018-Jan-11 04:00N 22°33' E 120°19'0 0.0
2018-Jan-11 03:30N 22°33' E 120°19'0 0.0
2018-Jan-11 03:00N 22°33' E 120°19'0 0.0
2018-Jan-11 02:30N 22°33' E 120°19'0 0.0
2018-Jan-11 02:01N 22°33' E 120°19'0 0.0
2018-Jan-11 01:30N 22°33' E 120°19'0 0.0
2018-Jan-11 01:01N 22°33' E 120°19'0 0.0
2018-Jan-11 00:30N 22°33' E 120°19'0 0.0
2018-Jan-11 00:01N 22°33' E 120°19'0 0.0
2018-Jan-10 23:30N 22°33' E 120°19'0 0.1
2018-Jan-10 23:00N 22°33' E 120°19'0 0.1
2018-Jan-10 22:30N 22°33' E 120°19'0 0.0
2018-Jan-10 22:00N 22°33' E 120°19'0 0.0
2018-Jan-10 21:30N 22°33' E 120°19'0 0.0
2018-Jan-10 21:00N 22°33' E 120°19'0 0.0
2018-Jan-10 20:30N 22°33' E 120°19'0 0.0
2018-Jan-10 20:00N 22°33' E 120°19'0 0.0
2018-Jan-10 19:30N 22°33' E 120°19'1 1.4
2018-Jan-10 19:00N 22°34' E 120°19'1 1.6
2018-Jan-10 18:30N 22°34' E 120°19'0 0.0
2018-Jan-10 18:00N 22°34' E 120°19'0 0.0
2018-Jan-10 17:30N 22°34' E 120°19'0 0.0
2018-Jan-10 17:00N 22°34' E 120°19'0 0.0
2018-Jan-10 16:30N 22°34' E 120°19'0 0.0
2018-Jan-10 16:00N 22°34' E 120°19'0 0.0
2018-Jan-10 15:30N 22°34' E 120°19'0 0.0
2018-Jan-10 15:00N 22°34' E 120°19'0 0.0
2018-Jan-10 14:31N 22°34' E 120°19'0 0.0
2018-Jan-10 14:00N 22°34' E 120°19'0 0.0
2018-Jan-10 13:30N 22°34' E 120°19'0 0.0
2018-Jan-10 13:00N 22°34' E 120°19'0 0.0
2018-Jan-10 12:30N 22°34' E 120°19'0 0.0
2018-Jan-10 12:00N 22°34' E 120°19'0 0.0
2018-Jan-10 11:31N 22°34' E 120°19'0 0.0
2018-Jan-10 11:01N 22°34' E 120°19'1 1.2
2018-Jan-10 10:30N 22°34' E 120°19'0 0.7
2018-Jan-10 10:01N 22°34' E 120°19'0 0.0
2018-Jan-10 09:30N 22°34' E 120°19'0 0.0
2018-Jan-10 09:00N 22°34' E 120°19'0 0.0
2018-Jan-10 08:30N 22°34' E 120°19'0 0.0
2018-Jan-10 08:00N 22°34' E 120°19'0 0.0
2018-Jan-10 07:30N 22°34' E 120°19'0 0.0
2018-Jan-10 07:01N 22°34' E 120°19'0 0.0
2018-Jan-10 06:31N 22°34' E 120°19'0 0.0
2018-Jan-10 06:00N 22°34' E 120°19'0 0.0
2018-Jan-10 05:30N 22°34' E 120°19'0 0.0
2018-Jan-10 05:00N 22°34' E 120°19'0 0.0
2018-Jan-10 04:30N 22°34' E 120°19'0 0.0
2018-Jan-10 04:01N 22°34' E 120°19'0 0.0
2018-Jan-10 03:30N 22°34' E 120°19'0 0.0
2018-Jan-10 03:01N 22°34' E 120°19'0 0.0
2018-Jan-10 02:31N 22°34' E 120°19'0 0.0
2018-Jan-10 02:00N 22°34' E 120°19'1 1.9
2018-Jan-10 01:30N 22°33' E 120°18'3 5.7
2018-Jan-10 01:00N 22°32' E 120°15'1 2.8
2018-Jan-10 00:30N 22°32' E 120°14'3 5.5
2018-Jan-10 00:00N 22°30' E 120°12'3 5.1
2018-Jan-09 23:30N 22°28' E 120°10'1 2.4
2018-Jan-09 23:00N 22°28' E 120°09'1 2.4
2018-Jan-09 22:30N 22°27' E 120°08'1 2.7
2018-Jan-09 22:01N 22°28' E 120°09'3 5.3
2018-Jan-09 21:30N 22°31' E 120°09'3 5.0
2018-Jan-09 21:01N 22°31' E 120°06'4 8.1
2018-Jan-09 20:30N 22°30' E 120°02'4 7.7
2018-Jan-09 20:00N 22°29' E 119°58'2 5.0
2018-Jan-09 19:31N 22°29' E 119°55'1 2.5
2018-Jan-09 19:00N 22°30' E 119°56'1 1.9
2018-Jan-09 18:30N 22°30' E 119°57'1 2.5
2018-Jan-09 18:00N 22°31' E 119°58'0 0.6
2018-Jan-09 17:31N 22°31' E 119°58'4 8.5
2018-Jan-09 17:00N 22°31' E 119°53'5 9.0
2018-Jan-09 16:30N 22°30' E 119°49'5 9.1
2018-Jan-09 15:56N 22°30' E 119°43'5 9.5
2018-Jan-09 15:24N 22°29' E 119°38'30613.8
2018-Jan-08 17:16N 22°19' E 114°07'1 3.3
2018-Jan-08 16:52N 22°20' E 114°08'0 0.0
2018-Jan-08 15:47N 22°20' E 114°08'0 0.0
2018-Jan-08 15:28N 22°20' E 114°08'0 0.0
2018-Jan-08 14:56N 22°20' E 114°08'0 0.0
2018-Jan-08 14:27N 22°20' E 114°08'0 0.0
2018-Jan-08 14:01N 22°20' E 114°08'0 0.0
2018-Jan-08 13:30N 22°20' E 114°08'0 0.0
2018-Jan-08 13:00N 22°20' E 114°08'0 0.0
2018-Jan-08 12:09N 22°20' E 114°08'0 0.0
2018-Jan-08 11:59N 22°20' E 114°08'0 0.0
2018-Jan-08 11:24N 22°20' E 114°08'0 0.0
2018-Jan-08 11:01N 22°20' E 114°08'0 0.0
2018-Jan-08 10:28N 22°20' E 114°08'0 0.0
2018-Jan-08 10:00N 22°20' E 114°08'25014.1
2018-Jan-07 16:20N 23°51' E 118°20'719.2
2018-Jan-07 15:59N 23°55' E 118°27'19319.0
2018-Jan-07 05:50N 25°22' E 121°36'620.2
2018-Jan-07 05:30N 25°19' E 121°42'816.1
2018-Jan-07 05:01N 25°11' E 121°45'3 5.1
2018-Jan-07 04:31N 25°09' E 121°45'0 0.0
2018-Jan-07 04:00N 25°09' E 121°45'0 0.0
2018-Jan-07 03:30N 25°09' E 121°45'0 0.0
2018-Jan-07 03:00N 25°09' E 121°45'0 0.0
2018-Jan-07 02:30N 25°09' E 121°45'0 0.0
2018-Jan-07 02:01N 25°09' E 121°45'0 0.0
2018-Jan-07 01:30N 25°09' E 121°45'0 0.0
2018-Jan-07 00:31N 25°09' E 121°45'0 0.0
2018-Jan-07 00:00N 25°09' E 121°45'0 0.0
2018-Jan-06 23:31N 25°09' E 121°45'0 0.0
2018-Jan-06 23:00N 25°09' E 121°45'0 0.0
2018-Jan-06 22:30N 25°09' E 121°45'0 0.0
2018-Jan-06 22:00N 25°09' E 121°45'0 0.0
2018-Jan-06 21:31N 25°09' E 121°45'0 0.0
2018-Jan-06 21:00N 25°09' E 121°45'0 0.0
2018-Jan-06 20:30N 25°09' E 121°45'0 0.0
2018-Jan-06 20:00N 25°09' E 121°45'0 0.0
2018-Jan-06 19:30N 25°09' E 121°45'0 0.0
2018-Jan-06 19:00N 25°09' E 121°45'0 0.0
2018-Jan-06 18:30N 25°09' E 121°45'0 0.0
2018-Jan-06 18:00N 25°09' E 121°45'0 0.0
2018-Jan-06 17:30N 25°09' E 121°45'0 1.0
2018-Jan-06 17:00N 25°09' E 121°45'4 7.8
2018-Jan-06 16:31N 25°13' E 121°44'3 6.9
2018-Jan-06 16:00N 25°16' E 121°46'2 3.8
2018-Jan-06 15:31N 25°14' E 121°46'1 2.8
2018-Jan-06 15:01N 25°15' E 121°47'0 0.8
2018-Jan-06 14:30N 25°15' E 121°46'2 4.1
2018-Jan-06 14:00N 25°16' E 121°49'2 4.6
2018-Jan-06 13:30N 25°16' E 121°51'4 8.9
2018-Jan-06 13:00N 25°18' E 121°55'5 9.7
2018-Jan-06 12:30N 25°20' E 122°00'510.0
2018-Jan-06 11:59N 25°23' E 122°05'101121.2
2018-Jan-04 12:15N 34°18' E 138°34'1222.8
2018-Jan-04 11:43N 34°25' E 138°46'622.8
2018-Jan-04 11:27N 34°28' E 138°52'1123.0
2018-Jan-04 11:00N 34°35' E 139°02'1223.3
2018-Jan-04 10:30N 34°44' E 139°11'1122.3
2018-Jan-04 10:00N 34°52' E 139°20'1121.0
2018-Jan-04 09:30N 34°58' E 139°31'1019.4
2018-Jan-04 09:00N 35°03' E 139°40'816.6
2018-Jan-04 08:31N 35°11' E 139°45'611.6
2018-Jan-04 08:01N 35°16' E 139°45'713.1
2018-Jan-04 07:30N 35°22' E 139°42'510.8
2018-Jan-04 07:01N 35°28' E 139°42'0 0.9
2018-Jan-04 06:31N 35°28' E 139°42'0 0.0
2018-Jan-04 06:01N 35°28' E 139°42'0 0.0
2018-Jan-04 05:30N 35°28' E 139°42'0 0.0
2018-Jan-04 05:01N 35°28' E 139°42'0 0.0
2018-Jan-04 04:31N 35°28' E 139°42'0 0.0
2018-Jan-04 04:00N 35°28' E 139°42'0 0.0
2018-Jan-04 03:31N 35°28' E 139°42'0 0.0
2018-Jan-04 03:01N 35°28' E 139°42'0 0.0
2018-Jan-04 02:31N 35°28' E 139°42'0 0.0
2018-Jan-04 02:01N 35°28' E 139°42'0 0.0
2018-Jan-04 01:31N 35°28' E 139°42'0 0.0
2018-Jan-04 01:01N 35°28' E 139°42'0 0.0
2018-Jan-04 00:31N 35°28' E 139°42'0 0.0
2018-Jan-04 00:01N 35°28' E 139°42'0 0.0
2018-Jan-03 23:31N 35°28' E 139°42'0 0.9
2018-Jan-03 23:01N 35°28' E 139°42'2 4.8
2018-Jan-03 22:31N 35°27' E 139°45'0 0.1
2018-Jan-03 22:01N 35°27' E 139°45'0 0.0
2018-Jan-03 21:31N 35°27' E 139°45'0 0.1
2018-Jan-03 21:01N 35°27' E 139°45'0 0.0
2018-Jan-03 20:31N 35°27' E 139°45'0 0.1
2018-Jan-03 20:01N 35°27' E 139°45'0 0.0
2018-Jan-03 19:31N 35°27' E 139°45'0 0.0
2018-Jan-03 19:01N 35°27' E 139°45'0 0.0
2018-Jan-03 18:31N 35°27' E 139°45'0 0.0
2018-Jan-03 18:01N 35°27' E 139°45'0 0.0
2018-Jan-03 17:31N 35°27' E 139°45'0 0.0
2018-Jan-03 17:01N 35°27' E 139°45'0 0.0
2018-Jan-03 16:31N 35°27' E 139°45'0 0.0
2018-Jan-03 16:01N 35°27' E 139°45'0 0.0
2018-Jan-03 15:31N 35°27' E 139°45'0 0.0
2018-Jan-03 15:01N 35°27' E 139°45'0 0.0
2018-Jan-03 14:31N 35°27' E 139°45'0 0.0
2018-Jan-03 14:01N 35°27' E 139°45'0 0.0
2018-Jan-03 13:31N 35°27' E 139°45'0 0.0
2018-Jan-03 13:01N 35°27' E 139°45'0 0.0
2018-Jan-03 12:31N 35°27' E 139°45'0 0.0
2018-Jan-03 12:01N 35°27' E 139°45'0 0.1
2018-Jan-03 11:31N 35°27' E 139°45'0 0.0
2018-Jan-03 11:01N 35°27' E 139°45'0 0.0
2018-Jan-03 10:31N 35°27' E 139°45'0 0.0
2018-Jan-03 10:01N 35°27' E 139°45'0 0.0
2018-Jan-03 09:31N 35°27' E 139°45'0 0.0
2018-Jan-03 09:01N 35°27' E 139°45'0 0.0
2018-Jan-03 08:31N 35°27' E 139°45'0 0.1
2018-Jan-03 08:01N 35°27' E 139°45'0 0.0
2018-Jan-03 07:31N 35°27' E 139°45'0 0.0
2018-Jan-03 07:01N 35°27' E 139°45'0 0.0
2018-Jan-03 06:31N 35°27' E 139°45'1 2.0
2018-Jan-03 06:01N 35°26' E 139°46'713.6
2018-Jan-03 05:30N 35°30' E 139°53'714.4
2018-Jan-03 05:01N 35°34' E 140°00'5 9.4
2018-Jan-03 04:30N 35°36' E 140°06'0 0.1
2018-Jan-03 04:01N 35°36' E 140°06'0 0.0
2018-Jan-03 03:30N 35°36' E 140°06'0 0.0
2018-Jan-03 03:00N 35°36' E 140°06'0 0.0
2018-Jan-03 02:30N 35°36' E 140°06'0 0.0
2018-Jan-03 02:00N 35°36' E 140°06'0 0.0
2018-Jan-03 01:31N 35°36' E 140°06'0 0.0
2018-Jan-03 01:01N 35°36' E 140°06'0 0.0
2018-Jan-03 00:31N 35°36' E 140°06'0 0.0
2018-Jan-03 00:01N 35°36' E 140°06'0 0.0
2018-Jan-02 23:31N 35°36' E 140°06'0 0.0
2018-Jan-02 23:01N 35°36' E 140°06'0 0.0
2018-Jan-02 22:30N 35°36' E 140°06'0 0.7
2018-Jan-02 22:01N 35°36' E 140°05'5 9.5
2018-Jan-02 21:31N 35°33' E 140°00'2 4.5
2018-Jan-02 21:00N 35°33' E 139°57'0 0.0
2018-Jan-02 20:31N 35°33' E 139°57'0 0.1
2018-Jan-02 20:01N 35°33' E 139°57'0 0.0
2018-Jan-02 19:31N 35°33' E 139°57'0 0.0
2018-Jan-02 19:00N 35°33' E 139°57'0 0.0
2018-Jan-02 18:31N 35°33' E 139°57'0 0.0
2018-Jan-02 18:00N 35°33' E 139°57'0 0.0
2018-Jan-02 17:31N 35°33' E 139°57'0 0.0
2018-Jan-02 17:01N 35°33' E 139°57'0 0.0
2018-Jan-02 16:31N 35°33' E 139°57'0 0.0
2018-Jan-02 16:01N 35°33' E 139°57'0 0.0
2018-Jan-02 15:30N 35°33' E 139°57'0 0.0
2018-Jan-02 15:01N 35°33' E 139°57'0 0.1
2018-Jan-02 14:30N 35°33' E 139°57'0 0.1
2018-Jan-02 14:01N 35°33' E 139°57'0 0.0
2018-Jan-02 13:31N 35°33' E 139°57'0 0.0
2018-Jan-02 13:01N 35°33' E 139°57'0 0.0
2018-Jan-02 12:31N 35°33' E 139°57'0 0.1
2018-Jan-02 12:01N 35°33' E 139°57'0 0.0
2018-Jan-02 11:31N 35°33' E 139°57'0 0.0
2018-Jan-02 11:01N 35°33' E 139°57'0 0.0
2018-Jan-02 10:30N 35°33' E 139°57'0 0.0
2018-Jan-02 10:01N 35°33' E 139°57'0 0.0
2018-Jan-02 09:31N 35°33' E 139°57'0 0.0
2018-Jan-02 08:30N 35°33' E 139°57'0 0.0
2018-Jan-02 08:00N 35°33' E 139°57'0 0.0
2018-Jan-02 07:30N 35°33' E 139°57'0 0.0
2018-Jan-02 07:01N 35°33' E 139°57'0 0.0
2018-Jan-02 06:30N 35°33' E 139°57'0 0.0
2018-Jan-02 06:01N 35°33' E 139°57'0 0.0
2018-Jan-02 05:30N 35°33' E 139°57'0 0.0
2018-Jan-02 04:31N 35°33' E 139°57'0 0.0
2018-Jan-02 04:01N 35°33' E 139°57'0 0.0
2018-Jan-02 03:31N 35°33' E 139°57'0 0.0
2018-Jan-02 03:01N 35°33' E 139°57'0 0.0
2018-Jan-02 02:31N 35°33' E 139°57'0 0.0
2018-Jan-02 02:01N 35°33' E 139°57'0 0.0
2018-Jan-02 01:31N 35°33' E 139°57'0 0.0
2018-Jan-02 01:01N 35°33' E 139°57'0 0.0
2018-Jan-02 00:30N 35°33' E 139°57'0 0.0
2018-Jan-02 00:01N 35°33' E 139°57'0 0.0
2018-Jan-01 23:31N 35°33' E 139°57'0 0.0
2018-Jan-01 23:01N 35°33' E 139°57'0 0.0
2018-Jan-01 22:30N 35°33' E 139°57'0 0.0
2018-Jan-01 22:00N 35°33' E 139°57'0 0.0
2018-Jan-01 21:31N 35°33' E 139°57'0 0.0
2018-Jan-01 21:01N 35°33' E 139°57'0 0.0
2018-Jan-01 20:31N 35°33' E 139°57'0 0.0
2018-Jan-01 20:01N 35°33' E 139°57'0 0.0
2018-Jan-01 19:31N 35°33' E 139°57'0 0.0
2018-Jan-01 19:01N 35°33' E 139°57'0 0.0
2018-Jan-01 18:31N 35°33' E 139°57'0 0.0
2018-Jan-01 18:01N 35°33' E 139°57'0 0.0
2018-Jan-01 17:31N 35°33' E 139°57'0 0.0
2018-Jan-01 15:01N 35°33' E 139°57'0 0.0
2018-Jan-01 14:31N 35°33' E 139°57'0 0.0
2018-Jan-01 14:01N 35°33' E 139°57'0 0.0
2018-Jan-01 13:31N 35°33' E 139°57'0 0.0
2018-Jan-01 13:01N 35°33' E 139°57'0 0.0
2018-Jan-01 12:01N 35°33' E 139°57'0 0.0
2018-Jan-01 11:30N 35°33' E 139°57'0 0.0
2018-Jan-01 11:01N 35°33' E 139°57'0 0.0
2018-Jan-01 10:31N 35°33' E 139°57'0 0.0
2018-Jan-01 10:01N 35°33' E 139°57'0 0.0
2018-Jan-01 09:31N 35°33' E 139°57'0 0.0
2018-Jan-01 08:31N 35°33' E 139°57'0 0.0
2018-Jan-01 08:01N 35°33' E 139°57'0 0.0
2018-Jan-01 07:30N 35°33' E 139°57'0 0.0
2018-Jan-01 07:00N 35°33' E 139°57'  

Dump ship's entire track history